01:47
Airports
History
Links
Donate
Help keep this website running!
PayPal
Bitcoin
This page is community maintained. The information is intended for PC simulator navigation or reference.
Always use approved charts for navigation.
PAK
Port Allen
Port Allen (PAK)
Eleele, Hawaii, United States (96705)
(U)
Lat/Lng:21° 53' 48.86" N / 159° 36' 11.98" W
21.896905 / -159.603327
Elevation:24'ft / 7mMSL
ID / ICAO:PAK
Runways:1
Longest:09-27
Asphalt 740m / 2,429ft
Nearby Weather00:53 GMT 2017-11-23
Nearby weather at PHLI, Lihue located 17.8 nautical miles from PAK
Altimeter: 30.05
Visibility: 10.0 statute miles
Wind: 16 knots (from 040°)
Temp: 24°c / 75°f
Humidity: 60.9%

METAR: PHLI 230053Z 04016KT 10SM BKN060 OVC075 24/16 A3005 RMK AO2 SLP174 T02440161

(Powered by phpweather)
Airport Radio Frequencies
CTAF: 122.9
Nearby VORs <50NM
Nearby NDBs
Runway 09 / 27
Dimensions:740.3 x 18m 2429' x 59'ft
Surface:Asphalt
Runway 09 [A]Runway 27 [B]
Heading:100°TH 280°TH
Lat:
Lng:
21° 53' 51"N
159° 36' 24.81"W
21° 53' 46.71"N
159° 35' 59.15"W
User Notes and Comments
21° 53' 48.86" N / 159° 36' 11.98" W
Distance To
Airport ID:
Nearby Airports
(R) Haiku Airstrip 10.9 NM
HI33 ENE 73°
(R) Hi 23 Airstrip 12.2 NM
HI46 ENE 67°
(R) Barking Sands Pmrf 14.5 NM
PHBK NW 306°
(R) Hanamaulu Airstrip 16.9 NM
HI03 NE 53°
(C) Lihue 17.8 NM
PHLI ( WX ) ENE 72°
(R) Princeville 23.8 NM
HI01 NNE 25°
(U) Dillingham Airfield 92.9 NM
PHDH ESE 103°
VFR Chart
Flight Planning at SkyVector.com